Time;durP1;ratioP1;P1;durP2;ratioP2;P2;SDS_P1;SDS_P2;PMS_P1;PMS_P2;Temp;Humidity;BMP_temperature;BMP_pressure;BME280_temperature;BME280_humidity;BME280_pressure;Samples;Min_cycle;Max_cycle;Signal;HPM_P1;HPM_P2
2021/10/24 00:02:12;;;;;;;6.47;2.33;;;;;;;3.25;73.78;102487.25;6392118;27;20184;-72
2021/10/24 00:05:19;;;;;;;3.87;2.40;;;;;;;3.38;73.40;102493.31;6391188;27;20289;-72
2021/10/24 00:08:23;;;;;;;2.13;2.13;;;;;;;3.36;74.14;102496.16;6391740;27;20215;-72
2021/10/24 00:11:27;;;;;;;2.10;2.10;;;;;;;3.34;73.62;102491.88;6392171;27;20249;-72
2021/10/24 00:14:32;;;;;;;2.23;2.23;;;;;;;3.33;73.85;102491.00;6390955;27;20189;-72
2021/10/24 00:17:36;;;;;;;2.70;2.60;;;;;;;3.37;75.33;102497.84;6391007;27;20185;-72
2021/10/24 00:20:42;;;;;;;4.47;2.90;;;;;;;3.28;74.01;102493.25;6391850;27;20247;-73
2021/10/24 00:23:46;;;;;;;2.70;2.60;;;;;;;3.32;75.84;102483.91;6391541;27;20252;-72
2021/10/24 00:26:50;;;;;;;2.20;2.10;;;;;;;3.26;74.05;102478.19;6391359;27;20276;-72
2021/10/24 00:29:54;;;;;;;3.93;3.70;;;;;;;3.31;74.16;102487.59;6372874;27;20199;-73
2021/10/24 00:33:03;;;;;;;5.63;4.47;;;;;;;3.34;74.59;102498.09;6391454;27;20296;-72
2021/10/24 00:36:08;;;;;;;3.10;2.80;;;;;;;3.45;74.83;102491.78;6391326;27;20196;-73
2021/10/24 00:39:14;;;;;;;2.10;2.00;;;;;;;3.45;74.37;102484.56;6391456;27;20207;-73
2021/10/24 00:42:19;;;;;;;2.93;2.50;;;;;;;3.48;73.61;102481.59;6373884;27;20527;-72
2021/10/24 00:45:24;;;;;;;3.03;2.37;;;;;;;3.56;75.31;102492.59;6356232;28;20530;-72
2021/10/24 00:48:28;;;;;;;2.80;2.60;;;;;;;3.53;75.80;102492.88;6364450;28;20525;-72
2021/10/24 00:51:34;;;;;;;2.70;2.60;;;;;;;3.59;76.09;102492.34;6365686;28;20201;-73
2021/10/24 00:54:39;;;;;;;2.17;2.17;;;;;;;3.75;74.88;102498.13;6363697;28;20249;-72
2021/10/24 00:57:44;;;;;;;2.20;2.20;;;;;;;3.82;73.95;102492.19;6380009;27;20209;-72
2021/10/24 01:00:48;;;;;;;2.23;2.13;;;;;;;3.72;75.04;102498.38;6363873;28;20201;-72
2021/10/24 01:03:53;;;;;;;2.57;2.37;;;;;;;3.77;75.18;102501.53;6365054;28;20189;-73
2021/10/24 01:07:02;;;;;;;2.60;2.50;;;;;;;3.79;74.72;102494.19;6363937;28;20389;-73
2021/10/24 01:10:14;;;;;;;2.47;2.37;;;;;;;3.79;75.08;102496.88;6363723;28;20204;-72
2021/10/24 01:13:18;;;;;;;3.03;2.60;;;;;;;3.73;75.65;102500.09;6365210;28;20190;-72
2021/10/24 01:16:23;;;;;;;2.53;2.43;;;;;;;3.74;75.17;102491.03;6362367;28;20206;-72
2021/10/24 01:19:27;;;;;;;2.57;2.37;;;;;;;3.79;75.79;102494.19;6363122;28;20490;-72
2021/10/24 01:22:35;;;;;;;2.27;2.27;;;;;;;3.78;76.74;102487.06;6346069;28;20484;-72
2021/10/24 01:25:39;;;;;;;2.73;2.63;;;;;;;3.91;75.01;102485.97;6362367;28;20258;-72
2021/10/24 01:28:44;;;;;;;3.63;2.00;;;;;;;4.16;73.37;102474.75;6362790;28;20201;-72
2021/10/24 01:31:48;;;;;;;1.73;1.67;;;;;;;4.26;72.57;102481.06;6363353;28;20488;-72
2021/10/24 01:34:55;;;;;;;1.80;1.80;;;;;;;4.26;74.16;102476.47;6363238;28;20490;-72
2021/10/24 01:38:01;;;;;;;2.03;2.03;;;;;;;4.11;73.68;102466.19;6363142;28;20489;-72
2021/10/24 01:41:08;;;;;;;1.97;1.80;;;;;;;4.15;74.23;102467.63;6345641;28;20202;-72
2021/10/24 01:44:12;;;;;;;1.70;1.60;;;;;;;4.07;76.20;102459.34;6364539;27;20408;-71
2021/10/24 01:47:17;;;;;;;1.70;1.70;;;;;;;4.09;75.79;102462.75;6371275;27;20258;-71
2021/10/24 01:50:21;;;;;;;1.90;1.90;;;;;;;4.11;76.55;102466.19;6371415;27;20204;-72
2021/10/24 01:53:30;;;;;;;1.60;1.50;;;;;;;4.12;77.47;102460.66;6371592;27;20198;-72
2021/10/24 01:56:35;;;;;;;1.40;1.40;;;;;;;4.08;76.92;102455.66;6371541;27;20208;-72
2021/10/24 01:59:39;;;;;;;1.63;1.63;;;;;;;4.08;76.02;102451.13;6404656;27;20230;-72
2021/10/24 02:03:05;;;;;;;1.70;1.70;;;;;;;4.15;76.08;102456.81;6403941;27;20273;-72
2021/10/24 02:06:21;;;;;;;1.60;1.50;;;;;;;4.10;75.96;102448.28;6369934;27;20219;-72
2021/10/24 02:09:27;;;;;;;1.50;1.50;;;;;;;4.04;76.02;102444.25;6370352;27;20198;-71
2021/10/24 02:12:31;;;;;;;1.27;1.27;;;;;;;4.10;76.67;102449.13;6369719;27;20502;-72
2021/10/24 02:15:42;;;;;;;1.43;1.43;;;;;;;4.16;76.29;102447.75;6369913;27;20256;-71
2021/10/24 02:18:46;;;;;;;1.47;1.47;;;;;;;4.11;76.79;102444.59;6403713;27;20198;-72
2021/10/24 02:21:50;;;;;;;1.67;1.67;;;;;;;4.09;76.91;102447.41;6369930;27;20489;-72
2021/10/24 02:24:59;;;;;;;1.60;1.50;;;;;;;4.13;77.16;102442.59;6403681;27;20230;-72
2021/10/24 02:28:04;;;;;;;2.57;1.60;;;;;;;4.13;76.56;102450.72;6369892;27;20457;-72
2021/10/24 02:31:09;;;;;;;1.90;1.80;;;;;;;4.22;76.50;102436.38;6389026;27;20182;-72
2021/10/24 02:34:33;;;;;;;1.63;1.63;;;;;;;4.26;76.81;102443.22;6388605;27;20190;-72
2021/10/24 02:37:46;;;;;;;6.13;1.40;;;;;;;4.20;78.31;102444.63;6403676;27;20206;-72
2021/10/24 02:40:55;;;;;;;1.70;1.60;;;;;;;4.26;75.81;102444.06;6369221;27;20375;-72
2021/10/24 02:43:59;;;;;;;1.27;1.23;;;;;;;4.24;76.23;102446.03;6360874;28;20262;-72
2021/10/24 02:47:12;;;;;;;1.87;1.80;;;;;;;4.20;76.36;102432.94;6361113;28;20234;-72
2021/10/24 02:50:18;;;;;;;1.80;1.57;;;;;;;4.24;76.34;102439.78;6361083;28;20203;-72
2021/10/24 02:53:22;;;;;;;1.33;1.33;;;;;;;4.24;76.82;102439.78;6344836;28;20199;-72
2021/10/24 02:56:27;;;;;;;1.30;1.30;;;;;;;4.27;77.52;102442.22;6344546;28;20207;-73
2021/10/24 02:59:32;;;;;;;1.43;1.43;;;;;;;4.32;77.83;102445.34;6361612;28;20497;-74
2021/10/24 03:02:37;;;;;;;1.30;1.30;;;;;;;4.30;76.93;102436.53;6378064;28;20198;-73
2021/10/24 03:05:42;;;;;;;1.37;1.37;;;;;;;4.41;76.92;102441.84;6377093;28;20212;-73
2021/10/24 03:08:46;;;;;;;1.27;1.27;;;;;;;4.39;77.16;102443.84;6361500;28;20263;-72
2021/10/24 03:11:52;;;;;;;1.40;1.40;;;;;;;4.41;75.93;102444.53;6360741;28;20541;-73
2021/10/24 03:14:56;;;;;;;1.53;1.53;;;;;;;4.35;77.05;102447.78;6360446;28;20231;-73
2021/10/24 03:18:02;;;;;;;1.77;1.63;;;;;;;4.37;76.18;102440.38;6366068;28;20209;-73
2021/10/24 03:21:09;;;;;;;1.33;1.33;;;;;;;4.40;76.98;102445.53;6366838;28;20354;-73
2021/10/24 03:24:16;;;;;;;1.50;1.50;;;;;;;4.48;76.17;102437.59;6366049;28;20204;-73
2021/10/24 03:27:22;;;;;;;1.00;1.00;;;;;;;4.46;76.85;102444.97;6365593;28;20288;-73
2021/10/24 03:30:27;;;;;;;1.20;1.20;;;;;;;4.46;77.50;102439.56;6365437;28;20281;-73
2021/10/24 03:33:31;;;;;;;1.30;1.30;;;;;;;4.49;76.94;102438.44;6366237;28;20207;-73
2021/10/24 03:36:36;;;;;;;1.30;1.23;;;;;;;4.52;77.33;102436.28;6365385;28;20370;-73
2021/10/24 03:39:40;;;;;;;1.40;1.40;;;;;;;4.57;77.34;102436.72;6399722;27;20232;-73
2021/10/24 03:42:48;;;;;;;1.33;1.33;;;;;;;4.57;76.19;102431.31;6364775;28;20239;-73
2021/10/24 03:45:52;;;;;;;1.10;1.10;;;;;;;4.79;75.00;102436.50;6348542;28;20230;-73
2021/10/24 03:48:58;;;;;;;1.07;1.07;;;;;;;4.91;73.64;102434.50;6364469;28;20208;-73
2021/10/24 03:52:08;;;;;;;1.13;1.13;;;;;;;4.87;73.52;102423.13;6365821;28;20207;-73
2021/10/24 03:55:12;;;;;;;1.10;1.10;;;;;;;5.08;72.75;102426.53;6365762;28;20382;-73
2021/10/24 03:58:18;;;;;;;1.10;1.10;;;;;;;5.02;73.21;102435.22;6364933;28;20210;-73
2021/10/24 04:01:22;;;;;;;1.30;1.20;;;;;;;5.10;72.52;102428.25;6365677;28;20201;-73
2021/10/24 04:04:26;;;;;;;1.30;1.00;;;;;;;5.12;72.42;102426.25;6366827;28;20268;-73
2021/10/24 04:07:30;;;;;;;1.10;1.10;;;;;;;5.08;72.69;102426.53;6364449;28;20292;-73
2021/10/24 04:10:35;;;;;;;1.10;1.10;;;;;;;5.11;72.80;102440.78;6364402;28;20402;-73
2021/10/24 04:13:42;;;;;;;1.00;1.00;;;;;;;5.03;73.42;102426.09;6366619;28;20183;-73
2021/10/24 04:16:49;;;;;;;2.07;1.30;;;;;;;4.97;73.78;102423.97;6364546;28;20202;-73
2021/10/24 04:20:13;;;;;;;3.37;1.20;;;;;;;5.02;73.57;102429.81;6365084;28;20264;-73
2021/10/24 04:23:22;;;;;;;1.10;1.10;;;;;;;5.13;72.80;102418.00;6364228;28;20203;-73
2021/10/24 04:26:26;;;;;;;2.37;1.23;;;;;;;4.88;74.60;102414.00;6364367;28;20482;-73
2021/10/24 04:29:32;;;;;;;1.40;1.23;;;;;;;4.84;75.21;102407.19;6364076;28;20263;-73
2021/10/24 04:32:41;;;;;;;1.33;1.33;;;;;;;4.75;75.71;102402.59;6364394;28;20207;-73
2021/10/24 04:35:46;;;;;;;1.30;1.30;;;;;;;4.79;75.53;102409.47;6398820;27;20275;-73
2021/10/24 04:38:50;;;;;;;0.93;0.93;;;;;;;4.84;76.38;102404.47;6364957;28;20208;-73
2021/10/24 04:41:54;;;;;;;1.07;1.07;;;;;;;4.95;76.54;102409.75;6380485;27;20198;-73
2021/10/24 04:45:00;;;;;;;1.90;1.00;;;;;;;5.00;75.88;102407.47;6346858;28;20254;-73
2021/10/24 04:48:05;;;;;;;2.47;1.23;;;;;;;4.93;77.10;102413.59;6347620;28;20286;-73
2021/10/24 04:51:18;;;;;;;1.30;1.30;;;;;;;4.94;76.11;102413.44;6346810;28;20215;-73
2021/10/24 04:54:23;;;;;;;1.10;1.10;;;;;;;4.98;76.60;102409.44;6364400;28;20252;-73
2021/10/24 04:57:28;;;;;;;1.17;1.13;;;;;;;4.97;75.83;102407.75;6346214;28;20235;-73
2021/10/24 05:00:34;;;;;;;1.03;1.03;;;;;;;5.01;76.19;102398.34;6346497;28;20339;-73
2021/10/24 05:03:39;;;;;;;1.07;1.07;;;;;;;5.05;75.86;102401.63;6345773;28;20340;-73
2021/10/24 05:06:44;;;;;;;1.23;1.23;;;;;;;5.10;76.71;102407.47;6380146;27;20236;-73
2021/10/24 05:09:49;;;;;;;1.30;1.20;;;;;;;5.18;75.97;102395.91;6346471;28;20272;-73
2021/10/24 05:12:54;;;;;;;1.43;1.17;;;;;;;5.19;75.76;102394.94;6346401;28;20209;-73
2021/10/24 05:15:59;;;;;;;2.07;1.37;;;;;;;5.19;76.61;102400.34;6346405;28;20360;-73
2021/10/24 05:19:05;;;;;;;3.00;1.83;;;;;;;5.21;76.13;102395.63;6346414;28;20204;-73
2021/10/24 05:22:10;;;;;;;1.97;1.87;;;;;;;5.18;75.38;102398.63;6345650;28;20280;-73
2021/10/24 05:25:14;;;;;;;1.60;1.60;;;;;;;5.17;76.37;102386.06;6364889;28;20184;-73
2021/10/24 05:28:19;;;;;;;1.30;1.30;;;;;;;5.14;76.33;102397.19;6345931;28;20263;-73
2021/10/24 05:31:26;;;;;;;1.37;1.20;;;;;;;5.23;74.98;102396.34;6346483;28;20200;-73
2021/10/24 05:34:43;;;;;;;1.37;1.37;;;;;;;5.32;75.92;102390.03;6345298;28;20207;-72
2021/10/24 05:37:55;;;;;;;1.00;1.00;;;;;;;5.27;75.23;102398.59;6345855;28;20203;-73
2021/10/24 05:41:00;;;;;;;0.97;0.97;;;;;;;5.21;74.00;102406.47;6345888;28;20200;-73
2021/10/24 05:44:06;;;;;;;0.90;0.90;;;;;;;5.30;73.89;102397.47;6345477;28;20262;-73
2021/10/24 05:47:14;;;;;;;1.20;1.20;;;;;;;5.33;74.28;102391.75;6346476;28;20200;-73
2021/10/24 05:50:19;;;;;;;1.00;1.00;;;;;;;5.33;73.59;102394.47;6364121;28;20185;-73
2021/10/24 05:53:23;;;;;;;0.93;0.93;;;;;;;5.44;72.86;102394.31;6362783;28;20192;-73
2021/10/24 05:56:30;;;;;;;1.00;1.00;;;;;;;5.33;72.85;102391.75;6345180;28;20204;-73
2021/10/24 05:59:37;;;;;;;1.00;1.00;;;;;;;5.43;73.39;102393.44;6364006;28;20255;-73
2021/10/24 06:02:51;;;;;;;1.10;1.00;;;;;;;5.43;72.33;102395.31;6344281;28;20202;-73
2021/10/24 06:06:31;;;;;;;0.90;0.90;;;;;;;5.49;71.64;102387.47;6363205;28;20201;-73
2021/10/24 06:09:41;;;;;;;0.90;0.90;;;;;;;5.44;70.90;102386.19;6344487;28;20238;-71
2021/10/24 06:12:51;;;;;;;0.90;0.90;;;;;;;5.56;70.51;102394.00;6362302;28;20192;-72
2021/10/24 06:15:55;;;;;;;0.93;0.93;;;;;;;5.62;71.14;102382.56;6344975;28;20278;-73
2021/10/24 06:19:00;;;;;;;1.80;1.07;;;;;;;5.68;69.82;102386.53;6362210;28;20491;-72
2021/10/24 06:22:05;;;;;;;0.90;0.90;;;;;;;5.66;70.33;102383.13;6344319;28;20312;-72
2021/10/24 06:25:14;;;;;;;1.30;0.90;;;;;;;5.65;70.24;102392.22;6344452;28;20200;-72
2021/10/24 06:28:21;;;;;;;1.00;1.00;;;;;;;5.77;69.76;102391.06;6343576;28;20221;-73
2021/10/24 06:31:26;;;;;;;0.90;0.90;;;;;;;5.72;69.52;102387.09;6344538;28;20208;-73
2021/10/24 06:34:54;;;;;;;0.97;0.97;;;;;;;5.75;69.74;102387.66;6315590;28;20200;-73
2021/10/24 06:38:12;;;;;;;0.87;0.87;;;;;;;5.72;69.71;102382.53;6344456;28;20228;-73
2021/10/24 06:41:20;;;;;;;0.90;0.90;;;;;;;5.81;70.27;102387.06;6343330;28;20269;-73
2021/10/24 06:44:42;;;;;;;1.33;0.80;;;;;;;5.90;70.17;102391.63;6343723;28;20421;-73
2021/10/24 06:48:13;;;;;;;0.77;0.77;;;;;;;5.86;70.65;102398.31;6342993;28;20222;-73
2021/10/24 06:51:37;;;;;;;3.13;1.00;;;;;;;5.94;70.84;102393.03;6344433;28;20262;-73
2021/10/24 06:54:54;;;;;;;1.00;1.00;;;;;;;5.94;70.76;102398.44;6361549;28;20185;-72
2021/10/24 06:58:17;;;;;;;0.97;0.90;;;;;;;5.99;71.36;102390.72;6362740;28;20195;-72
2021/10/24 07:01:40;;;;;;;1.10;1.10;;;;;;;6.12;71.13;102402.06;6361519;28;20472;-73
2021/10/24 07:05:17;;;;;;;1.43;1.00;;;;;;;6.14;71.78;102389.22;6339496;28;20201;-73
2021/10/24 07:08:25;;;;;;;2.73;1.20;;;;;;;6.20;71.71;102388.63;6343493;28;20221;-72
2021/10/24 07:11:29;;;;;;;1.50;1.00;;;;;;;6.22;71.68;102392.03;6343662;28;20489;-73
2021/10/24 07:14:34;;;;;;;0.90;0.90;;;;;;;6.29;72.19;102382.28;6344706;28;20201;-72
2021/10/24 07:17:38;;;;;;;2.53;1.03;;;;;;;6.29;72.56;102376.84;6343136;28;20268;-72
2021/10/24 07:20:43;;;;;;;1.10;1.00;;;;;;;6.35;72.45;102386.25;6343529;28;20323;-72
2021/10/24 07:23:50;;;;;;;1.13;1.13;;;;;;;6.47;72.37;102381.47;6344214;28;20232;-73
2021/10/24 07:26:56;;;;;;;2.20;1.10;;;;;;;6.53;72.13;102375.41;6343711;28;20201;-73
2021/10/24 07:30:01;;;;;;;0.93;0.93;;;;;;;6.53;72.21;102391.69;6344196;28;20233;-73
2021/10/24 07:33:11;;;;;;;2.90;0.90;;;;;;;6.54;72.67;102396.13;6345122;28;20185;-73
2021/10/24 07:36:55;;;;;;;1.73;1.10;;;;;;;6.65;72.45;102404.03;6349044;28;20201;-73
2021/10/24 07:40:00;;;;;;;2.67;1.43;;;;;;;6.77;72.40;102391.94;6362158;28;20317;-73
2021/10/24 07:43:06;;;;;;;0.97;0.97;;;;;;;6.77;72.41;102397.38;6343161;28;20228;-73
2021/10/24 07:46:13;;;;;;;2.60;1.00;;;;;;;6.76;72.73;102403.78;6362201;28;20231;-73
2021/10/24 07:49:18;;;;;;;1.83;0.83;;;;;;;6.75;73.42;102393.97;6343914;28;20228;-73
2021/10/24 07:52:22;;;;;;;1.20;1.20;;;;;;;6.82;74.67;102405.91;6343177;28;20560;-73
2021/10/24 07:55:29;;;;;;;1.20;1.10;;;;;;;6.86;74.39;102402.72;6343199;28;20264;-73
2021/10/24 07:58:36;;;;;;;0.80;0.80;;;;;;;6.91;75.87;102407.66;6343752;28;20271;-73
2021/10/24 08:01:42;;;;;;;1.00;1.00;;;;;;;6.92;76.18;102402.09;6343557;28;20221;-73
2021/10/24 08:04:49;;;;;;;3.97;1.30;;;;;;;6.85;77.62;102400.16;6347455;28;20202;-73
2021/10/24 08:07:58;;;;;;;1.23;1.13;;;;;;;6.92;77.68;102402.09;6346997;28;20496;-73
2021/10/24 08:11:04;;;;;;;1.50;1.40;;;;;;;6.88;77.70;102389.00;6347971;28;20229;-72
2021/10/24 08:14:09;;;;;;;7.27;1.53;;;;;;;7.00;78.83;102386.91;6348168;28;20201;-72
2021/10/24 08:17:14;;;;;;;1.80;1.30;;;;;;;6.92;80.83;102384.97;6347454;28;20377;-73
2021/10/24 08:20:26;;;;;;;2.17;1.23;;;;;;;7.02;78.90;102385.72;6347748;28;20233;-72
2021/10/24 08:23:31;;;;;;;1.33;1.30;;;;;;;7.05;77.99;102374.56;6347901;28;20201;-72
2021/10/24 08:26:37;;;;;;;2.57;1.47;;;;;;;7.10;77.55;102368.66;6348050;28;20204;-72
2021/10/24 08:29:42;;;;;;;1.43;1.33;;;;;;;7.15;78.12;102369.91;6347170;28;20229;-73
2021/10/24 08:33:12;;;;;;;2.77;1.80;;;;;;;7.15;77.53;102358.19;6365052;28;20208;-72
2021/10/24 08:36:18;;;;;;;3.20;1.47;;;;;;;7.21;77.21;102353.00;6364587;28;20204;-72
2021/10/24 08:39:22;;;;;;;2.20;1.70;;;;;;;7.26;76.08;102350.66;6364471;28;20550;-72
2021/10/24 08:42:32;;;;;;;5.27;1.97;;;;;;;7.28;76.39;102348.63;6356539;28;20248;-73
2021/10/24 08:45:37;;;;;;;2.40;2.30;;;;;;;7.31;76.27;102348.31;6365540;28;20193;-73
2021/10/24 08:48:42;;;;;;;11.43;1.80;;;;;;;7.38;76.41;102360.22;6364481;28;20209;-73
2021/10/24 08:51:46;;;;;;;2.67;1.83;;;;;;;7.39;76.54;102353.81;6365486;28;20210;-72
2021/10/24 08:54:51;;;;;;;4.77;2.10;;;;;;;7.51;74.80;102348.94;6365274;28;20214;-73
2021/10/24 08:57:56;;;;;;;1.70;1.60;;;;;;;7.62;74.18;102361.41;6366117;28;20182;-73
2021/10/24 09:01:18;;;;;;;3.40;1.87;;;;;;;7.71;73.72;102357.69;6365328;28;20197;-73
2021/10/24 09:04:22;;;;;;;2.20;1.80;;;;;;;7.73;74.17;102352.97;6364276;28;20183;-72
2021/10/24 09:07:37;;;;;;;6.67;2.10;;;;;;;7.72;75.80;102345.81;6363935;28;20182;-71
2021/10/24 09:10:45;;;;;;;2.10;2.00;;;;;;;7.72;74.90;102346.69;6364545;28;20232;-73
2021/10/24 09:13:50;;;;;;;1.90;1.90;;;;;;;7.76;74.31;102352.63;6364411;28;20189;-72
2021/10/24 09:16:55;;;;;;;5.47;2.55;;;;;;;7.78;73.68;102351.44;6364286;28;20182;-72
2021/10/24 09:20:01;;;;;;;2.47;2.28;;;;;;;7.87;73.39;102352.34;6364418;28;20185;-73
2021/10/24 09:23:07;;;;;;;2.45;2.25;;;;;;;7.89;73.69;102348.47;6364805;28;20182;-73
2021/10/24 09:26:23;;;;;;;2.10;1.77;;;;;;;7.87;73.09;102352.34;6364220;28;20190;-73
2021/10/24 09:29:28;;;;;;;5.50;2.40;;;;;;;7.94;73.48;102351.53;6364702;28;20190;-72
2021/10/24 09:32:46;;;;;;;1.77;1.60;;;;;;;8.04;72.50;102356.84;6364447;28;20219;-72
2021/10/24 09:35:51;;;;;;;1.98;1.55;;;;;;;8.15;71.11;102348.38;6363478;28;20294;-73
2021/10/24 09:39:08;;;;;;;2.80;1.55;;;;;;;8.14;71.58;102346.69;6363477;28;20291;-72
2021/10/24 09:42:17;;;;;;;2.40;2.22;;;;;;;8.16;72.16;102355.53;6363029;28;20526;-73
2021/10/24 09:45:22;;;;;;;4.40;1.83;;;;;;;8.11;71.83;102352.47;6364183;28;20251;-72
2021/10/24 09:48:28;;;;;;;3.67;1.95;;;;;;;8.23;72.12;102345.69;6345097;28;20512;-72
2021/10/24 09:51:34;;;;;;;5.13;1.40;;;;;;;8.26;71.99;102334.50;6362801;28;20286;-73
2021/10/24 09:54:48;;;;;;;2.65;1.67;;;;;;;8.23;71.74;102345.69;6363946;28;20257;-73
2021/10/24 09:57:52;;;;;;;1.75;1.52;;;;;;;8.29;71.58;102339.66;6362654;28;20467;-73
2021/10/24 10:00:59;;;;;;;1.70;1.60;;;;;;;8.42;71.69;102339.16;6363562;28;20193;-78
2021/10/24 10:04:04;;;;;;;3.58;1.50;;;;;;;8.51;70.93;102339.00;6363351;28;20182;-73
2021/10/24 10:07:09;;;;;;;3.25;1.25;;;;;;;8.51;71.35;102339.00;6362092;28;20526;-73
2021/10/24 10:10:13;;;;;;;2.92;1.40;;;;;;;8.55;70.36;102334.09;6362229;28;20210;-73
2021/10/24 10:13:22;;;;;;;2.85;1.50;;;;;;;8.60;70.49;102327.09;6363199;28;20189;-74
2021/10/24 10:16:36;;;;;;;4.72;1.60;;;;;;;8.45;71.37;102334.22;6363195;28;20183;-73
2021/10/24 10:19:42;;;;;;;2.13;1.70;;;;;;;8.60;71.02;102321.66;6363548;28;20214;-73
2021/10/24 10:23:01;;;;;;;2.53;2.03;;;;;;;8.63;70.81;102324.03;6343923;28;20265;-72
2021/10/24 10:26:31;;;;;;;2.05;1.75;;;;;;;8.64;71.21;102317.59;6361389;28;20245;-72
2021/10/24 10:29:50;;;;;;;3.78;1.58;;;;;;;8.77;70.14;102312.50;6362194;28;20469;-73
2021/10/24 10:32:55;;;;;;;1.73;1.63;;;;;;;8.78;71.61;102314.19;6362789;28;20182;-72
2021/10/24 10:36:01;;;;;;;3.28;1.60;;;;;;;8.72;71.58;102308.59;6362678;28;20183;-72
2021/10/24 10:39:45;;;;;;;7.63;1.80;;;;;;;8.87;70.45;102306.03;6361479;28;20182;-73
2021/10/24 10:43:03;;;;;;;5.72;1.63;;;;;;;8.88;71.92;102302.31;6348285;28;20238;-72
2021/10/24 10:46:09;;;;;;;1.63;1.45;;;;;;;8.93;71.57;102297.19;6337681;28;20183;-72
2021/10/24 10:49:27;;;;;;;2.05;1.70;;;;;;;9.00;70.89;102300.94;6336035;28;20478;-72
2021/10/24 10:52:41;;;;;;;1.90;1.42;;;;;;;9.09;70.62;102289.03;6335818;28;20533;-72
2021/10/24 10:56:22;;;;;;;1.77;1.63;;;;;;;9.19;70.76;102295.13;6336467;28;20250;-72
2021/10/24 10:59:36;;;;;;;2.40;1.73;;;;;;;9.27;70.43;102298.66;6336763;28;20237;-72
2021/10/24 11:02:42;;;;;;;1.77;1.70;;;;;;;9.37;70.07;102293.06;6336018;28;20494;-72
2021/10/24 11:05:47;;;;;;;3.63;1.48;;;;;;;9.43;69.97;102286.88;6336768;28;20227;-73
2021/10/24 11:08:53;;;;;;;8.57;1.70;;;;;;;9.47;69.14;102271.91;6335838;28;20246;-72
2021/10/24 11:11:57;;;;;;;3.22;1.92;;;;;;;9.53;69.33;102276.63;6335505;28;20214;-72
2021/10/24 11:15:27;;;;;;;1.52;1.42;;;;;;;9.54;70.09;102267.44;6337148;28;20280;-72
2021/10/24 11:18:32;;;;;;;4.03;1.40;;;;;;;9.61;70.19;102273.03;6336738;28;20189;-72
2021/10/24 11:21:37;;;;;;;3.13;1.60;;;;;;;9.63;69.87;102277.28;6337174;28;20250;-72
2021/10/24 11:24:43;;;;;;;1.70;1.63;;;;;;;9.75;69.51;102270.44;6336393;28;20246;-72
2021/10/24 11:27:47;;;;;;;2.58;1.70;;;;;;;9.82;70.11;102259.66;6336104;28;20250;-72
2021/10/24 11:31:00;;;;;;;2.38;1.88;;;;;;;9.93;69.11;102268.31;6336955;28;20211;-73
2021/10/24 11:34:06;;;;;;;2.88;1.50;;;;;;;9.90;69.95;102256.91;6335537;28;20497;-73
2021/10/24 11:37:12;;;;;;;3.20;1.50;;;;;;;10.05;69.19;102261.41;6336921;28;20182;-72
2021/10/24 11:40:18;;;;;;;2.20;1.50;;;;;;;10.05;69.92;102268.75;6340325;28;20444;-73
2021/10/24 11:43:25;;;;;;;1.60;1.50;;;;;;;10.14;69.00;102264.13;6353610;28;20222;-72
2021/10/24 11:46:30;;;;;;;2.03;1.83;;;;;;;10.17;69.03;102263.78;6366732;28;20414;-72
2021/10/24 11:49:46;;;;;;;3.13;1.58;;;;;;;10.06;69.96;102263.13;6365679;28;20288;-73
2021/10/24 11:52:58;;;;;;;4.75;1.67;;;;;;;10.13;69.67;102268.72;6366834;28;20274;-73
2021/10/24 11:56:05;;;;;;;4.55;1.88;;;;;;;10.10;70.23;102260.88;6366297;28;20189;-73
2021/10/24 11:59:16;;;;;;;2.60;1.40;;;;;;;10.12;71.41;102266.16;6365408;28;20476;-73
2021/10/24 12:02:22;;;;;;;5.15;1.35;;;;;;;10.28;68.57;102255.16;6391186;27;20280;-72
2021/10/24 12:05:27;;;;;;;4.20;1.55;;;;;;;10.24;69.00;102237.47;6392032;27;20213;-72
2021/10/24 12:08:40;;;;;;;4.70;1.75;;;;;;;10.26;69.29;102240.88;6391774;27;20213;-72
2021/10/24 12:11:46;;;;;;;3.10;1.65;;;;;;;10.31;68.85;102232.97;6390633;27;20209;-73
2021/10/24 12:14:54;;;;;;;4.00;1.48;;;;;;;10.37;69.22;102237.72;6391323;27;20182;-72
2021/10/24 12:18:12;;;;;;;1.48;1.48;;;;;;;10.42;69.53;102230.69;6391508;27;20182;-72
2021/10/24 12:21:25;;;;;;;1.75;1.67;;;;;;;10.56;68.37;102215.38;6390512;27;20441;-73
2021/10/24 12:24:41;;;;;;;2.05;1.58;;;;;;;10.54;68.83;102217.44;6391804;27;20255;-73
2021/10/24 12:28:05;;;;;;;6.43;1.45;;;;;;;10.54;68.50;102217.44;6390370;27;20182;-73
2021/10/24 12:31:18;;;;;;;4.30;1.48;;;;;;;10.45;70.28;102207.66;6390065;27;20422;-73
2021/10/24 12:34:23;;;;;;;3.53;1.55;;;;;;;10.49;70.98;102215.28;6391538;27;20189;-73
2021/10/24 12:37:27;;;;;;;7.30;1.85;;;;;;;10.52;70.60;102209.47;6390692;27;20227;-73
2021/10/24 12:40:33;;;;;;;2.28;1.67;;;;;;;10.48;72.05;102202.66;6390022;27;20182;-72
2021/10/24 12:43:47;;;;;;;2.70;1.65;;;;;;;10.50;70.87;102177.94;6390972;27;20418;-73
2021/10/24 12:46:52;;;;;;;3.85;1.85;;;;;;;10.57;70.74;102176.16;6390025;27;20182;-73
2021/10/24 12:49:58;;;;;;;1.88;1.63;;;;;;;10.49;70.79;102181.69;6390181;27;20186;-73
2021/10/24 12:53:05;;;;;;;5.55;1.88;;;;;;;10.57;70.89;102176.16;6390574;27;20240;-72
2021/10/24 12:56:11;;;;;;;4.30;1.55;;;;;;;10.54;70.83;102168.31;6390808;27;20227;-72
2021/10/24 12:59:15;;;;;;;6.78;1.90;;;;;;;10.61;71.13;102158.34;6391129;27;20178;-72
2021/10/24 13:02:19;;;;;;;1.63;1.52;;;;;;;10.67;69.99;102163.09;6389742;27;20384;-73
2021/10/24 13:05:26;;;;;;;4.72;1.90;;;;;;;10.59;71.12;102161.28;6389888;27;20189;-72
2021/10/24 13:08:31;;;;;;;9.13;2.30;;;;;;;10.53;71.33;102150.25;6390658;27;20182;-73
2021/10/24 13:11:35;;;;;;;2.08;1.60;;;;;;;10.58;71.03;102148.66;6390275;27;20182;-72
2021/10/24 13:14:40;;;;;;;2.33;1.70;;;;;;;10.49;71.38;102148.94;6390380;27;20181;-72
2021/10/24 13:17:44;;;;;;;2.97;1.90;;;;;;;10.61;71.03;102152.91;6389512;27;20185;-72
2021/10/24 13:20:56;;;;;;;1.80;1.70;;;;;;;10.50;71.52;102139.72;6389068;27;20320;-72
2021/10/24 13:24:03;;;;;;;3.25;1.75;;;;;;;10.41;72.21;102146.28;6390359;27;20249;-72
2021/10/24 13:27:07;;;;;;;3.28;2.03;;;;;;;10.52;71.33;102143.13;6390503;27;20182;-72
2021/10/24 13:30:11;;;;;;;4.60;2.05;;;;;;;10.55;71.48;102137.28;6389316;27;20182;-72
2021/10/24 13:33:18;;;;;;;1.92;1.75;;;;;;;10.53;71.92;102134.72;6389731;27;20213;-73
2021/10/24 13:36:23;;;;;;;6.68;2.28;;;;;;;10.55;71.27;102131.81;6388749;27;20491;-73
2021/10/24 13:39:28;;;;;;;4.20;1.65;;;;;;;10.55;71.79;102131.81;6388910;27;20182;-74
2021/10/24 13:42:32;;;;;;;5.40;1.50;;;;;;;10.50;71.73;102137.00;6388512;27;20292;-73
2021/10/24 13:45:36;;;;;;;5.72;1.85;;;;;;;10.34;72.74;102139.88;6389676;27;20182;-72
2021/10/24 13:48:41;;;;;;;4.50;1.65;;;;;;;10.34;73.17;102146.19;6389705;27;20244;-72
2021/10/24 13:51:47;;;;;;;3.10;1.48;;;;;;;10.31;73.36;102151.13;6389767;27;20245;-73
2021/10/24 13:54:51;;;;;;;2.50;1.42;;;;;;;10.29;73.36;102153.22;6389099;27;20270;-73
2021/10/24 13:57:55;;;;;;;3.72;1.50;;;;;;;10.33;73.18;102154.53;6388757;27;20217;-73
2021/10/24 14:00:59;;;;;;;3.67;1.55;;;;;;;10.31;73.71;102156.59;6387465;27;20256;-73
2021/10/24 14:04:06;;;;;;;3.03;1.40;;;;;;;10.31;73.93;102151.13;6388168;27;20402;-73
2021/10/24 14:07:12;;;;;;;3.05;1.58;;;;;;;10.25;74.64;102147.25;6389123;27;20182;-73
2021/10/24 14:10:17;;;;;;;3.28;1.52;;;;;;;10.29;73.83;102131.38;6388906;27;20181;-72
2021/10/24 14:13:21;;;;;;;5.75;1.90;;;;;;;10.20;73.75;102121.56;6370021;27;20412;-73
2021/10/24 14:16:25;;;;;;;2.65;1.88;;;;;;;10.29;73.91;102142.28;6388724;27;20213;-72
2021/10/24 14:19:29;;;;;;;5.15;1.98;;;;;;;10.25;74.36;102135.50;6388718;27;20253;-73
2021/10/24 14:22:35;;;;;;;2.97;1.75;;;;;;;10.21;74.57;102129.56;6389157;27;20185;-73
2021/10/24 14:25:40;;;;;;;7.47;1.67;;;;;;;10.15;74.21;102129.44;6387745;27;20372;-73
2021/10/24 14:28:44;;;;;;;1.92;1.60;;;;;;;10.14;74.54;102111.41;6388732;27;20188;-72
2021/10/24 14:31:48;;;;;;;3.80;1.58;;;;;;;10.06;75.01;102121.31;6387315;27;20476;-72
2021/10/24 14:34:53;;;;;;;4.28;1.70;;;;;;;10.05;75.10;102114.16;6388582;27;20291;-72
2021/10/24 14:37:58;;;;;;;7.00;1.85;;;;;;;10.05;75.35;102108.72;6388448;27;20189;-73
2021/10/24 14:41:03;;;;;;;3.03;2.10;;;;;;;10.08;74.80;102097.44;6388660;27;20188;-72
2021/10/24 14:44:07;;;;;;;6.28;1.90;;;;;;;10.02;75.19;102109.06;6388066;27;20236;-73